sensor_id;sensor_type;location;lat;lon;timestamp;pressure;altitude;pressure_sealevel;temperature;humidity
53480;BME280;56133;51.012;-1.648;2022-11-27T00:01:57;100533.47;;;11.11;100.00
53480;BME280;56133;51.012;-1.648;2022-11-27T00:04:22;100532.78;;;11.08;100.00
53480;BME280;56133;51.012;-1.648;2022-11-27T00:06:47;100525.69;;;11.07;100.00
53480;BME280;56133;51.012;-1.648;2022-11-27T00:09:14;100528.09;;;11.11;100.00
53480;BME280;56133;51.012;-1.648;2022-11-27T00:11:41;100525.28;;;11.12;100.00
53480;BME280;56133;51.012;-1.648;2022-11-27T00:14:10;100529.22;;;11.08;100.00
53480;BME280;56133;51.012;-1.648;2022-11-27T00:16:36;100541.69;;;11.09;100.00
53480;BME280;56133;51.012;-1.648;2022-11-27T00:19:01;100531.66;;;11.11;100.00
53480;BME280;56133;51.012;-1.648;2022-11-27T00:21:29;100532.47;;;11.12;100.00
53480;BME280;56133;51.012;-1.648;2022-11-27T00:23:56;100531.09;;;11.17;100.00
53480;BME280;56133;51.012;-1.648;2022-11-27T00:26:23;100538.84;;;11.11;100.00
53480;BME280;56133;51.012;-1.648;2022-11-27T00:28:48;100530.25;;;11.17;100.00
53480;BME280;56133;51.012;-1.648;2022-11-27T00:31:22;100532.66;;;11.20;100.00
53480;BME280;56133;51.012;-1.648;2022-11-27T00:33:53;100518.75;;;11.15;100.00
53480;BME280;56133;51.012;-1.648;2022-11-27T00:36:19;100529.09;;;11.19;100.00
53480;BME280;56133;51.012;-1.648;2022-11-27T00:38:44;100536.19;;;11.20;100.00
53480;BME280;56133;51.012;-1.648;2022-11-27T00:41:19;100530.53;;;11.23;100.00
53480;BME280;56133;51.012;-1.648;2022-11-27T00:43:44;100526.28;;;11.21;100.00
53480;BME280;56133;51.012;-1.648;2022-11-27T00:46:19;100524.31;;;11.23;100.00
53480;BME280;56133;51.012;-1.648;2022-11-27T00:48:45;100527.13;;;11.21;100.00
53480;BME280;56133;51.012;-1.648;2022-11-27T00:51:13;100514.28;;;11.25;100.00
53480;BME280;56133;51.012;-1.648;2022-11-27T00:53:40;100518.22;;;11.21;100.00
53480;BME280;56133;51.012;-1.648;2022-11-27T00:56:06;100506.94;;;11.27;100.00
53480;BME280;56133;51.012;-1.648;2022-11-27T00:58:32;100508.34;;;11.31;100.00
53480;BME280;56133;51.012;-1.648;2022-11-27T01:00:59;100515.69;;;11.29;100.00
53480;BME280;56133;51.012;-1.648;2022-11-27T01:03:27;100505.22;;;11.26;100.00
53480;BME280;56133;51.012;-1.648;2022-11-27T01:05:52;100512.00;;;11.30;100.00
53480;BME280;56133;51.012;-1.648;2022-11-27T01:08:18;100503.66;;;11.33;100.00
53480;BME280;56133;51.012;-1.648;2022-11-27T01:10:56;100504.66;;;11.32;100.00
53480;BME280;56133;51.012;-1.648;2022-11-27T01:13:25;100500.97;;;11.33;100.00
53480;BME280;56133;51.012;-1.648;2022-11-27T01:18:25;100506.25;;;11.35;100.00
53480;BME280;56133;51.012;-1.648;2022-11-27T01:20:51;100513.88;;;11.39;100.00
53480;BME280;56133;51.012;-1.648;2022-11-27T01:23:18;100513.28;;;11.36;100.00
53480;BME280;56133;51.012;-1.648;2022-11-27T01:25:43;100506.09;;;11.36;100.00
53480;BME280;56133;51.012;-1.648;2022-11-27T01:28:09;100516.28;;;11.33;100.00
53480;BME280;56133;51.012;-1.648;2022-11-27T01:30:37;100514.00;;;11.38;100.00
53480;BME280;56133;51.012;-1.648;2022-11-27T01:33:02;100521.25;;;11.37;100.00
53480;BME280;56133;51.012;-1.648;2022-11-27T01:35:28;100513.72;;;11.41;100.00
53480;BME280;56133;51.012;-1.648;2022-11-27T01:37:53;100509.22;;;11.42;100.00
53480;BME280;56133;51.012;-1.648;2022-11-27T01:40:19;100512.03;;;11.40;100.00
53480;BME280;56133;51.012;-1.648;2022-11-27T01:42:44;100521.25;;;11.37;100.00
53480;BME280;56133;51.012;-1.648;2022-11-27T01:45:10;100517.13;;;11.43;100.00
53480;BME280;56133;51.012;-1.648;2022-11-27T01:47:48;100515.31;;;11.44;100.00
53480;BME280;56133;51.012;-1.648;2022-11-27T01:50:21;100520.81;;;11.42;100.00
53480;BME280;56133;51.012;-1.648;2022-11-27T01:52:51;100528.88;;;11.42;100.00
53480;BME280;56133;51.012;-1.648;2022-11-27T01:55:25;100514.88;;;11.48;100.00
53480;BME280;56133;51.012;-1.648;2022-11-27T01:57:55;100512.31;;;11.47;100.00
53480;BME280;56133;51.012;-1.648;2022-11-27T02:00:22;100498.59;;;11.50;100.00
53480;BME280;56133;51.012;-1.648;2022-11-27T02:02:48;100508.66;;;11.48;100.00
53480;BME280;56133;51.012;-1.648;2022-11-27T02:05:17;100512.47;;;11.45;100.00
53480;BME280;56133;51.012;-1.648;2022-11-27T02:07:44;100506.41;;;11.53;100.00
53480;BME280;56133;51.012;-1.648;2022-11-27T02:10:11;100515.88;;;11.47;100.00
53480;BME280;56133;51.012;-1.648;2022-11-27T02:18:24;100516.59;;;11.49;100.00
53480;BME280;56133;51.012;-1.648;2022-11-27T02:21:04;100519.69;;;11.54;100.00
53480;BME280;56133;51.012;-1.648;2022-11-27T02:26:25;100511.06;;;11.51;100.00
53480;BME280;56133;51.012;-1.648;2022-11-27T02:29:19;100505.13;;;11.57;100.00
53480;BME280;56133;51.012;-1.648;2022-11-27T02:32:01;100494.50;;;11.56;100.00
53480;BME280;56133;51.012;-1.648;2022-11-27T02:39:48;100494.38;;;11.57;100.00
53480;BME280;56133;51.012;-1.648;2022-11-27T02:42:19;100490.09;;;11.64;100.00
53480;BME280;56133;51.012;-1.648;2022-11-27T02:44:49;100488.56;;;11.62;100.00
53480;BME280;56133;51.012;-1.648;2022-11-27T02:47:17;100483.44;;;11.59;100.00
53480;BME280;56133;51.012;-1.648;2022-11-27T02:49:44;100473.25;;;11.62;100.00
53480;BME280;56133;51.012;-1.648;2022-11-27T02:52:12;100468.88;;;11.61;100.00
53480;BME280;56133;51.012;-1.648;2022-11-27T02:54:41;100479.78;;;11.69;100.00
53480;BME280;56133;51.012;-1.648;2022-11-27T02:57:09;100483.47;;;11.68;100.00
53480;BME280;56133;51.012;-1.648;2022-11-27T02:59:36;100472.69;;;11.68;100.00
53480;BME280;56133;51.012;-1.648;2022-11-27T03:02:09;100474.66;;;11.66;100.00
53480;BME280;56133;51.012;-1.648;2022-11-27T03:04:45;100464.19;;;11.73;100.00
53480;BME280;56133;51.012;-1.648;2022-11-27T03:07:28;100458.69;;;11.65;100.00
53480;BME280;56133;51.012;-1.648;2022-11-27T03:09:56;100460.94;;;11.69;100.00
53480;BME280;56133;51.012;-1.648;2022-11-27T03:12:24;100460.50;;;11.64;100.00
53480;BME280;56133;51.012;-1.648;2022-11-27T03:14:50;100456.69;;;11.67;100.00
53480;BME280;56133;51.012;-1.648;2022-11-27T03:20:09;100450.72;;;11.73;100.00
53480;BME280;56133;51.012;-1.648;2022-11-27T03:22:37;100454.84;;;11.67;100.00
53480;BME280;56133;51.012;-1.648;2022-11-27T03:25:03;100454.00;;;11.67;100.00
53480;BME280;56133;51.012;-1.648;2022-11-27T03:27:32;100460.66;;;11.73;100.00
53480;BME280;56133;51.012;-1.648;2022-11-27T03:30:00;100465.06;;;11.74;100.00
53480;BME280;56133;51.012;-1.648;2022-11-27T03:32:27;100472.13;;;11.75;100.00
53480;BME280;56133;51.012;-1.648;2022-11-27T03:34:55;100472.41;;;11.72;100.00
53480;BME280;56133;51.012;-1.648;2022-11-27T03:37:22;100467.03;;;11.72;100.00
53480;BME280;56133;51.012;-1.648;2022-11-27T03:39:48;100467.88;;;11.72;100.00
53480;BME280;56133;51.012;-1.648;2022-11-27T03:42:34;100466.16;;;11.71;100.00
53480;BME280;56133;51.012;-1.648;2022-11-27T03:45:15;100461.94;;;11.68;100.00
53480;BME280;56133;51.012;-1.648;2022-11-27T03:53:47;100466.31;;;11.79;100.00
53480;BME280;56133;51.012;-1.648;2022-11-27T03:58:48;100460.78;;;11.81;100.00
53480;BME280;56133;51.012;-1.648;2022-11-27T04:01:17;100468.31;;;11.77;100.00
53480;BME280;56133;51.012;-1.648;2022-11-27T04:03:43;100473.84;;;11.76;100.00
53480;BME280;56133;51.012;-1.648;2022-11-27T04:06:09;100472.97;;;11.75;100.00
53480;BME280;56133;51.012;-1.648;2022-11-27T04:08:36;100482.91;;;11.75;100.00
53480;BME280;56133;51.012;-1.648;2022-11-27T04:11:01;100480.22;;;11.75;100.00
53480;BME280;56133;51.012;-1.648;2022-11-27T04:13:26;100478.34;;;11.75;100.00
53480;BME280;56133;51.012;-1.648;2022-11-27T04:15:52;100474.53;;;11.68;100.00
53480;BME280;56133;51.012;-1.648;2022-11-27T04:18:17;100475.22;;;11.70;100.00
53480;BME280;56133;51.012;-1.648;2022-11-27T04:20:43;100474.13;;;11.73;100.00
53480;BME280;56133;51.012;-1.648;2022-11-27T04:23:08;100474.94;;;11.73;100.00
53480;BME280;56133;51.012;-1.648;2022-11-27T04:25:34;100467.03;;;11.72;100.00
53480;BME280;56133;51.012;-1.648;2022-11-27T04:28:00;100473.53;;;11.79;100.00
53480;BME280;56133;51.012;-1.648;2022-11-27T04:30:25;100472.41;;;11.81;100.00
53480;BME280;56133;51.012;-1.648;2022-11-27T04:32:50;100473.25;;;11.82;100.00
53480;BME280;56133;51.012;-1.648;2022-11-27T04:35:16;100470.84;;;11.79;100.00
53480;BME280;56133;51.012;-1.648;2022-11-27T04:37:41;100473.25;;;11.82;100.00
53480;BME280;56133;51.012;-1.648;2022-11-27T04:40:07;100474.94;;;11.83;100.00
53480;BME280;56133;51.012;-1.648;2022-11-27T04:42:33;100478.91;;;11.79;100.00
53480;BME280;56133;51.012;-1.648;2022-11-27T04:44:58;100480.78;;;11.78;100.00
53480;BME280;56133;51.012;-1.648;2022-11-27T04:47:24;100470.00;;;11.78;100.00
53480;BME280;56133;51.012;-1.648;2022-11-27T04:49:49;100470.28;;;11.75;100.00
53480;BME280;56133;51.012;-1.648;2022-11-27T04:52:14;100477.09;;;11.69;100.00
53480;BME280;56133;51.012;-1.648;2022-11-27T04:54:40;100475.81;;;11.74;100.00
53480;BME280;56133;51.012;-1.648;2022-11-27T04:57:05;100478.63;;;11.72;100.00
53480;BME280;56133;51.012;-1.648;2022-11-27T04:59:31;100472.13;;;11.75;100.00
53480;BME280;56133;51.012;-1.648;2022-11-27T05:01:56;100459.38;;;11.77;100.00
53480;BME280;56133;51.012;-1.648;2022-11-27T05:04:22;100459.66;;;11.74;100.00
53480;BME280;56133;51.012;-1.648;2022-11-27T05:06:48;100464.19;;;11.83;100.00
53480;BME280;56133;51.012;-1.648;2022-11-27T05:09:16;100473.53;;;11.79;100.00
53480;BME280;56133;51.012;-1.648;2022-11-27T05:11:41;100465.31;;;11.80;100.00
53480;BME280;56133;51.012;-1.648;2022-11-27T05:14:06;100461.94;;;11.78;100.00
53480;BME280;56133;51.012;-1.648;2022-11-27T05:16:53;100449.03;;;11.72;100.00
53480;BME280;56133;51.012;-1.648;2022-11-27T05:19:20;100447.91;;;11.75;100.00
53480;BME280;56133;51.012;-1.648;2022-11-27T05:21:47;100452.00;;;11.79;100.00
53480;BME280;56133;51.012;-1.648;2022-11-27T05:24:14;100447.19;;;11.73;100.00
53480;BME280;56133;51.012;-1.648;2022-11-27T05:26:40;100429.91;;;11.85;100.00
53480;BME280;56133;51.012;-1.648;2022-11-27T05:29:07;100448.91;;;11.83;100.00
53480;BME280;56133;51.012;-1.648;2022-11-27T05:31:33;100468.44;;;11.86;100.00
53480;BME280;56133;51.012;-1.648;2022-11-27T05:33:59;100485.88;;;11.81;100.00
53480;BME280;56133;51.012;-1.648;2022-11-27T05:36:25;100492.09;;;11.82;100.00
53480;BME280;56133;51.012;-1.648;2022-11-27T05:38:50;100496.22;;;11.76;100.00
53480;BME280;56133;51.012;-1.648;2022-11-27T05:41:16;100488.13;;;11.76;100.00
53480;BME280;56133;51.012;-1.648;2022-11-27T05:43:41;100489.97;;;11.76;100.00
53480;BME280;56133;51.012;-1.648;2022-11-27T05:46:08;100499.16;;;11.73;100.00
53480;BME280;56133;51.012;-1.648;2022-11-27T05:48:35;100503.44;;;11.76;100.00
53480;BME280;56133;51.012;-1.648;2022-11-27T05:51:01;100506.84;;;11.78;100.00
53480;BME280;56133;51.012;-1.648;2022-11-27T05:53:27;100506.25;;;11.74;100.00
53480;BME280;56133;51.012;-1.648;2022-11-27T05:55:52;100509.81;;;11.75;100.00
53480;BME280;56133;51.012;-1.648;2022-11-27T05:58:18;100501.88;;;11.73;100.00
53480;BME280;56133;51.012;-1.648;2022-11-27T06:00:44;100473.41;;;11.71;100.00
53480;BME280;56133;51.012;-1.648;2022-11-27T06:03:09;100470.72;;;11.71;100.00
53480;BME280;56133;51.012;-1.648;2022-11-27T06:05:38;100458.53;;;11.66;100.00
53480;BME280;56133;51.012;-1.648;2022-11-27T06:08:04;100456.97;;;11.74;100.00
53480;BME280;56133;51.012;-1.648;2022-11-27T06:10:30;100465.44;;;11.79;100.00
53480;BME280;56133;51.012;-1.648;2022-11-27T06:12:55;100469.56;;;11.73;100.00
53480;BME280;56133;51.012;-1.648;2022-11-27T06:15:21;100486.31;;;11.77;100.00
53480;BME280;56133;51.012;-1.648;2022-11-27T06:17:48;100489.28;;;11.74;100.00
53480;BME280;56133;51.012;-1.648;2022-11-27T06:20:13;100496.47;;;11.73;100.00
53480;BME280;56133;51.012;-1.648;2022-11-27T06:22:39;100500.88;;;11.74;100.00
53480;BME280;56133;51.012;-1.648;2022-11-27T06:25:04;100495.78;;;11.71;100.00
53480;BME280;56133;51.012;-1.648;2022-11-27T06:27:34;100490.09;;;11.64;100.00
53480;BME280;56133;51.012;-1.648;2022-11-27T06:30:00;100476.25;;;11.69;100.00
53480;BME280;56133;51.012;-1.648;2022-11-27T06:32:26;100473.41;;;11.71;100.00
53480;BME280;56133;51.012;-1.648;2022-11-27T06:34:51;100446.66;;;11.69;100.00
53480;BME280;56133;51.012;-1.648;2022-11-27T06:37:16;100443.09;;;11.68;100.00
53480;BME280;56133;51.012;-1.648;2022-11-27T06:39:42;100436.56;;;11.71;100.00
53480;BME280;56133;51.012;-1.648;2022-11-27T06:42:08;100423.69;;;11.75;100.00
53480;BME280;56133;51.012;-1.648;2022-11-27T06:44:33;100429.34;;;11.72;100.00
53480;BME280;56133;51.012;-1.648;2022-11-27T06:46:59;100428.22;;;11.64;100.00
53480;BME280;56133;51.012;-1.648;2022-11-27T06:49:24;100419.03;;;11.67;100.00
53480;BME280;56133;51.012;-1.648;2022-11-27T06:51:49;100415.47;;;11.57;100.00
53480;BME280;56133;51.012;-1.648;2022-11-27T06:54:15;100426.81;;;11.50;100.00
53480;BME280;56133;51.012;-1.648;2022-11-27T06:56:40;100419.16;;;11.56;100.00
53480;BME280;56133;51.012;-1.648;2022-11-27T06:59:06;100428.94;;;11.57;100.00
53480;BME280;56133;51.012;-1.648;2022-11-27T07:01:31;100442.09;;;11.50;100.00
53480;BME280;56133;51.012;-1.648;2022-11-27T07:03:58;100437.56;;;11.41;100.00
53480;BME280;56133;51.012;-1.648;2022-11-27T07:06:25;100440.81;;;11.34;100.00
53480;BME280;56133;51.012;-1.648;2022-11-27T07:08:52;100442.53;;;11.35;100.00
53480;BME280;56133;51.012;-1.648;2022-11-27T07:11:20;100439.28;;;11.51;100.00
53480;BME280;56133;51.012;-1.648;2022-11-27T07:13:46;100428.81;;;11.48;100.00
53480;BME280;56133;51.012;-1.648;2022-11-27T07:16:13;100434.75;;;11.42;100.00
53480;BME280;56133;51.012;-1.648;2022-11-27T07:18:44;100441.00;;;11.52;100.00
53480;BME280;56133;51.012;-1.648;2022-11-27T07:21:10;100457.97;;;11.53;100.00
53480;BME280;56133;51.012;-1.648;2022-11-27T07:23:36;100460.81;;;11.51;100.00
53480;BME280;56133;51.012;-1.648;2022-11-27T07:26:10;100469.28;;;11.47;100.00
53480;BME280;56133;51.012;-1.648;2022-11-27T07:28:36;100474.97;;;11.44;100.00
53480;BME280;56133;51.012;-1.648;2022-11-27T07:31:01;100457.81;;;11.45;100.00
53480;BME280;56133;51.012;-1.648;2022-11-27T07:33:27;100457.13;;;11.43;100.00
53480;BME280;56133;51.012;-1.648;2022-11-27T07:36:01;100458.53;;;11.47;100.00
53480;BME280;56133;51.012;-1.648;2022-11-27T07:38:27;100458.81;;;11.53;100.00
53480;BME280;56133;51.012;-1.648;2022-11-27T07:40:53;100468.16;;;11.49;100.00
53480;BME280;56133;51.012;-1.648;2022-11-27T07:43:18;100467.56;;;11.46;100.00
53480;BME280;56133;51.012;-1.648;2022-11-27T07:45:44;100465.75;;;11.46;100.00
53480;BME280;56133;51.012;-1.648;2022-11-27T07:48:09;100470.16;;;11.47;100.00
53480;BME280;56133;51.012;-1.648;2022-11-27T07:50:34;100463.63;;;11.40;100.00
53480;BME280;56133;51.012;-1.648;2022-11-27T07:53:00;100470.69;;;11.41;100.00
53480;BME280;56133;51.012;-1.648;2022-11-27T07:55:25;100468.28;;;11.48;100.00
53480;BME280;56133;51.012;-1.648;2022-11-27T07:57:51;100464.19;;;11.44;100.00
53480;BME280;56133;51.012;-1.648;2022-11-27T08:00:16;100465.19;;;11.43;100.00
53480;BME280;56133;51.012;-1.648;2022-11-27T08:02:42;100467.03;;;11.52;100.00
53480;BME280;56133;51.012;-1.648;2022-11-27T08:05:08;100470.41;;;11.44;100.00
53480;BME280;56133;51.012;-1.648;2022-11-27T08:07:33;100470.44;;;11.54;100.00
53480;BME280;56133;51.012;-1.648;2022-11-27T08:09:59;100458.41;;;11.48;100.00
53480;BME280;56133;51.012;-1.648;2022-11-27T08:12:24;100444.34;;;11.54;100.00
53480;BME280;56133;51.012;-1.648;2022-11-27T08:14:50;100432.59;;;11.46;100.00
53480;BME280;56133;51.012;-1.648;2022-11-27T08:17:16;100439.28;;;11.42;100.00
53480;BME280;56133;51.012;-1.648;2022-11-27T08:19:41;100444.78;;;11.50;100.00
53480;BME280;56133;51.012;-1.648;2022-11-27T08:22:15;100446.75;;;11.48;100.00
53480;BME280;56133;51.012;-1.648;2022-11-27T08:24:41;100444.94;;;11.48;100.00
53480;BME280;56133;51.012;-1.648;2022-11-27T08:27:09;100452.31;;;11.56;100.00
53480;BME280;56133;51.012;-1.648;2022-11-27T08:29:35;100453.13;;;11.57;100.00
53480;BME280;56133;51.012;-1.648;2022-11-27T08:32:01;100463.19;;;11.54;100.00
53480;BME280;56133;51.012;-1.648;2022-11-27T08:34:27;100465.88;;;11.54;100.00
53480;BME280;56133;51.012;-1.648;2022-11-27T08:36:52;100470.44;;;11.54;100.00
53480;BME280;56133;51.012;-1.648;2022-11-27T08:39:18;100474.38;;;11.50;100.00
53480;BME280;56133;51.012;-1.648;2022-11-27T08:41:44;100483.72;;;11.56;100.00
53480;BME280;56133;51.012;-1.648;2022-11-27T08:44:09;100474.25;;;11.51;100.00
53480;BME280;56133;51.012;-1.648;2022-11-27T08:46:35;100473.97;;;11.54;100.00
53480;BME280;56133;51.012;-1.648;2022-11-27T08:49:01;100468.72;;;11.53;100.00
53480;BME280;56133;51.012;-1.648;2022-11-27T08:51:26;100470.44;;;11.54;100.00
53480;BME280;56133;51.012;-1.648;2022-11-27T08:53:52;100459.50;;;11.56;100.00
53480;BME280;56133;51.012;-1.648;2022-11-27T08:56:22;100450.72;;;11.53;100.00
53480;BME280;56133;51.012;-1.648;2022-11-27T08:58:48;100445.50;;;11.52;100.00
53480;BME280;56133;51.012;-1.648;2022-11-27T09:01:16;100452.59;;;11.53;100.00
53480;BME280;56133;51.012;-1.648;2022-11-27T09:03:42;100451.03;;;11.50;100.00
53480;BME280;56133;51.012;-1.648;2022-11-27T09:06:11;100451.59;;;11.54;100.00
53480;BME280;56133;51.012;-1.648;2022-11-27T09:08:38;100440.69;;;11.56;100.00
53480;BME280;56133;51.012;-1.648;2022-11-27T09:11:04;100439.56;;;11.58;100.00
53480;BME280;56133;51.012;-1.648;2022-11-27T09:13:30;100429.91;;;11.56;100.00
53480;BME280;56133;51.012;-1.648;2022-11-27T09:15:56;100433.59;;;11.54;100.00
53480;BME280;56133;51.012;-1.648;2022-11-27T09:18:22;100436.44;;;11.63;100.00
53480;BME280;56133;51.012;-1.648;2022-11-27T09:20:59;100446.66;;;11.69;100.00
53480;BME280;56133;51.012;-1.648;2022-11-27T09:23:26;100444.63;;;11.71;100.00
53480;BME280;56133;51.012;-1.648;2022-11-27T09:25:51;100424.53;;;11.75;100.00
53480;BME280;56133;51.012;-1.648;2022-11-27T09:28:17;100400.72;;;11.80;100.00
53480;BME280;56133;51.012;-1.648;2022-11-27T09:30:43;100397.03;;;11.81;100.00
53480;BME280;56133;51.012;-1.648;2022-11-27T09:33:08;100393.50;;;11.81;100.00
53480;BME280;56133;51.012;-1.648;2022-11-27T09:35:36;100390.38;;;11.86;100.00
53480;BME280;56133;51.012;-1.648;2022-11-27T09:38:02;100388.53;;;11.86;100.00
53480;BME280;56133;51.012;-1.648;2022-11-27T09:40:28;100395.47;;;11.89;100.00
53480;BME280;56133;51.012;-1.648;2022-11-27T09:42:58;100399.47;;;11.84;100.00
53480;BME280;56133;51.012;-1.648;2022-11-27T09:45:27;100411.75;;;11.87;100.00
53480;BME280;56133;51.012;-1.648;2022-11-27T09:47:57;100401.00;;;11.87;100.00
53480;BME280;56133;51.012;-1.648;2022-11-27T09:50:34;100406.81;;;11.92;100.00
53480;BME280;56133;51.012;-1.648;2022-11-27T09:53:30;100404.66;;;11.96;100.00
53480;BME280;56133;51.012;-1.648;2022-11-27T09:55:59;100398.44;;;12.05;100.00
53480;BME280;56133;51.012;-1.648;2022-11-27T09:58:39;100392.91;;;12.07;100.00
53480;BME280;56133;51.012;-1.648;2022-11-27T10:01:12;100386.53;;;12.08;100.00
53480;BME280;56133;51.012;-1.648;2022-11-27T10:03:41;100396.41;;;12.17;100.00
53480;BME280;56133;51.012;-1.648;2022-11-27T10:09:33;100373.44;;;12.13;100.00
53480;BME280;56133;51.012;-1.648;2022-11-27T10:14:29;100378.25;;;12.19;100.00
53480;BME280;56133;51.012;-1.648;2022-11-27T10:17:07;100384.91;;;12.25;100.00
53480;BME280;56133;51.012;-1.648;2022-11-27T10:20:00;100393.59;;;12.19;100.00
53480;BME280;56133;51.012;-1.648;2022-11-27T10:25:18;100391.19;;;12.16;100.00
53480;BME280;56133;51.012;-1.648;2022-11-27T10:30:25;100416.53;;;12.13;100.00
53480;BME280;56133;51.012;-1.648;2022-11-27T10:32:54;100421.09;;;12.12;100.00
53480;BME280;56133;51.012;-1.648;2022-11-27T10:35:24;100404.22;;;12.10;100.00
53480;BME280;56133;51.012;-1.648;2022-11-27T10:38:08;100412.03;;;12.13;100.00
53480;BME280;56133;51.012;-1.648;2022-11-27T10:40:39;100410.75;;;12.08;100.00
53480;BME280;56133;51.012;-1.648;2022-11-27T10:43:16;100411.75;;;12.07;100.00
53480;BME280;56133;51.012;-1.648;2022-11-27T10:45:50;100415.44;;;12.06;100.00
53480;BME280;56133;51.012;-1.648;2022-11-27T10:48:17;100408.66;;;12.02;100.00
53480;BME280;56133;51.012;-1.648;2022-11-27T10:50:43;100414.75;;;12.04;100.00
53480;BME280;56133;51.012;-1.648;2022-11-27T10:53:36;100390.34;;;12.05;100.00
53480;BME280;56133;51.012;-1.648;2022-11-27T10:58:43;100387.53;;;12.07;100.00
53480;BME280;56133;51.012;-1.648;2022-11-27T11:01:20;100393.19;;;12.04;100.00
53480;BME280;56133;51.012;-1.648;2022-11-27T11:03:46;100381.72;;;12.02;100.00
53480;BME280;56133;51.012;-1.648;2022-11-27T11:08:42;100389.09;;;11.99;100.00
53480;BME280;56133;51.012;-1.648;2022-11-27T11:11:08;100390.34;;;12.05;100.00
53480;BME280;56133;51.012;-1.648;2022-11-27T11:16:18;100383.84;;;12.08;100.00
53480;BME280;56133;51.012;-1.648;2022-11-27T11:18:52;100381.16;;;12.08;100.00
53480;BME280;56133;51.012;-1.648;2022-11-27T11:21:32;100380.00;;;12.10;100.00
53480;BME280;56133;51.012;-1.648;2022-11-27T11:24:02;100382.25;;;12.15;100.00
53480;BME280;56133;51.012;-1.648;2022-11-27T11:26:38;100366.09;;;12.15;100.00
53480;BME280;56133;51.012;-1.648;2022-11-27T11:29:15;100361.84;;;12.12;100.00
53480;BME280;56133;51.012;-1.648;2022-11-27T11:31:43;100363.13;;;12.08;100.00
53480;BME280;56133;51.012;-1.648;2022-11-27T11:36:37;100351.41;;;11.99;100.00
53480;BME280;56133;51.012;-1.648;2022-11-27T11:39:03;100347.41;;;12.04;100.00
53480;BME280;56133;51.012;-1.648;2022-11-27T11:41:36;100342.03;;;12.04;100.00
53480;BME280;56133;51.012;-1.648;2022-11-27T11:44:02;100336.25;;;11.98;100.00
53480;BME280;56133;51.012;-1.648;2022-11-27T11:46:30;100337.50;;;12.04;100.00
53480;BME280;56133;51.012;-1.648;2022-11-27T11:49:04;100341.75;;;12.07;100.00
53480;BME280;56133;51.012;-1.648;2022-11-27T11:57:20;100305.53;;;12.19;100.00
53480;BME280;56133;51.012;-1.648;2022-11-27T12:00:00;100296.88;;;12.25;100.00
53480;BME280;56133;51.012;-1.648;2022-11-27T12:05:43;100303.09;;;12.26;100.00
53480;BME280;56133;51.012;-1.648;2022-11-27T12:11:14;100295.03;;;12.26;100.00
53480;BME280;56133;51.012;-1.648;2022-11-27T12:16:39;100301.28;;;12.26;100.00
53480;BME280;56133;51.012;-1.648;2022-11-27T12:28:08;100289.38;;;12.19;100.00
53480;BME280;56133;51.012;-1.648;2022-11-27T12:44:27;100280.03;;;11.86;100.00
53480;BME280;56133;51.012;-1.648;2022-11-27T12:47:03;100277.50;;;11.74;100.00
53480;BME280;56133;51.012;-1.648;2022-11-27T12:49:47;100280.06;;;11.76;100.00
53480;BME280;56133;51.012;-1.648;2022-11-27T12:52:21;100286.97;;;11.78;100.00
53480;BME280;56133;51.012;-1.648;2022-11-27T12:55:02;100282.59;;;11.77;100.00
53480;BME280;56133;51.012;-1.648;2022-11-27T12:57:37;100282.16;;;11.82;100.00
53480;BME280;56133;51.012;-1.648;2022-11-27T13:00:12;100276.06;;;11.80;100.00
53480;BME280;56133;51.012;-1.648;2022-11-27T13:06:06;100266.28;;;11.79;100.00
53480;BME280;56133;51.012;-1.648;2022-11-27T13:08:44;100260.78;;;11.80;100.00
53480;BME280;56133;51.012;-1.648;2022-11-27T13:11:14;100253.53;;;11.81;100.00
53480;BME280;56133;51.012;-1.648;2022-11-27T13:13:54;100247.72;;;11.86;100.00
53480;BME280;56133;51.012;-1.648;2022-11-27T13:16:34;100250.84;;;11.81;100.00
53480;BME280;56133;51.012;-1.648;2022-11-27T13:19:11;100250.72;;;11.82;100.00
53480;BME280;56133;51.012;-1.648;2022-11-27T13:21:40;100236.00;;;11.77;100.00
53480;BME280;56133;51.012;-1.648;2022-11-27T13:24:10;100237.28;;;11.73;100.00
53480;BME280;56133;51.012;-1.648;2022-11-27T13:26:44;100239.13;;;11.72;100.00
53480;BME280;56133;51.012;-1.648;2022-11-27T13:31:41;100240.44;;;11.68;100.00
53480;BME280;56133;51.012;-1.648;2022-11-27T13:34:17;100230.94;;;11.64;100.00
53480;BME280;56133;51.012;-1.648;2022-11-27T13:36:46;100221.47;;;11.60;100.00
53480;BME280;56133;51.012;-1.648;2022-11-27T13:39:34;100219.78;;;11.59;100.00
53480;BME280;56133;51.012;-1.648;2022-11-27T13:44:38;100230.97;;;11.54;100.00
53480;BME280;56133;51.012;-1.648;2022-11-27T13:47:12;100226.00;;;11.59;100.00
53480;BME280;56133;51.012;-1.648;2022-11-27T13:49:40;100226.31;;;11.56;100.00
53480;BME280;56133;51.012;-1.648;2022-11-27T13:52:13;100230.28;;;11.52;100.00
53480;BME280;56133;51.012;-1.648;2022-11-27T13:54:57;100220.38;;;11.52;100.00
53480;BME280;56133;51.012;-1.648;2022-11-27T13:57:23;100219.34;;;11.53;100.00
53480;BME280;56133;51.012;-1.648;2022-11-27T14:02:25;100213.84;;;11.55;100.00
53480;BME280;56133;51.012;-1.648;2022-11-27T14:04:51;100217.97;;;11.49;100.00
53480;BME280;56133;51.012;-1.648;2022-11-27T14:07:18;100200.97;;;11.49;100.00
53480;BME280;56133;51.012;-1.648;2022-11-27T14:09:50;100196.31;;;11.41;100.00
53480;BME280;56133;51.012;-1.648;2022-11-27T14:12:29;100182.72;;;11.52;100.00
53480;BME280;56133;51.012;-1.648;2022-11-27T14:15:06;100172.38;;;11.48;100.00
53480;BME280;56133;51.012;-1.648;2022-11-27T14:17:40;100170.69;;;11.47;100.00